Terminal Aerodrome Forecast
Issued by NWS

Home | Current Version | Previous Version | Text Only | Print | Product List | Glossary On
Versions: 1 2 3 4 5 6 7 8 9 10 11 12
000
FTUS45 KRIW 182300
TAFJAC
TAF
KJAC 182328Z 1900/1924 36011G17KT P6SM SCT040 BKN080
     FM190200 01011KT P6SM SCT060
     FM191400 VRB04KT P6SM FEW060
     FM192200 35010KT P6SM VCSH FEW040 SCT080
      AMD LTD TO CLD VIS AND WIND=

USA.gov is the U.S. government's official web portal to all federal, state and local government web resources and services.